sensor_id;sensor_type;location;lat;lon;timestamp;temperature;humidity
70534;SHT31;58088;51.186;17.130;2022-12-29T00:00:51;8.73;65.11
70534;SHT31;58088;51.186;17.130;2022-12-29T00:03:17;8.71;65.19
70534;SHT31;58088;51.186;17.130;2022-12-29T00:05:43;8.69;65.31
70534;SHT31;58088;51.186;17.130;2022-12-29T00:08:10;8.67;65.40
70534;SHT31;58088;51.186;17.130;2022-12-29T00:10:36;8.65;65.58
70534;SHT31;58088;51.186;17.130;2022-12-29T00:13:02;8.63;65.63
70534;SHT31;58088;51.186;17.130;2022-12-29T00:16:06;8.63;65.67
70534;SHT31;58088;51.186;17.130;2022-12-29T00:18:33;8.63;65.65
70534;SHT31;58088;51.186;17.130;2022-12-29T00:20:59;8.61;65.66
70534;SHT31;58088;51.186;17.130;2022-12-29T00:23:43;8.59;65.66
70534;SHT31;58088;51.186;17.130;2022-12-29T00:26:29;8.58;65.65
70534;SHT31;58088;51.186;17.130;2022-12-29T00:29:13;8.56;65.62
70534;SHT31;58088;51.186;17.130;2022-12-29T00:32:18;8.57;65.59
70534;SHT31;58088;51.186;17.130;2022-12-29T00:35:03;8.57;65.46
70534;SHT31;58088;51.186;17.130;2022-12-29T00:37:39;8.53;65.40
70534;SHT31;58088;51.186;17.130;2022-12-29T00:40:27;8.53;65.35
70534;SHT31;58088;51.186;17.130;2022-12-29T00:43:13;8.52;65.27
70534;SHT31;58088;51.186;17.130;2022-12-29T00:45:58;8.52;65.19
70534;SHT31;58088;51.186;17.130;2022-12-29T00:48:24;8.51;65.06
70534;SHT31;58088;51.186;17.130;2022-12-29T00:51:10;8.52;64.98
70534;SHT31;58088;51.186;17.130;2022-12-29T00:53:37;8.51;64.88
70534;SHT31;58088;51.186;17.130;2022-12-29T00:56:03;8.52;64.73
70534;SHT31;58088;51.186;17.130;2022-12-29T00:58:30;8.55;64.70
70534;SHT31;58088;51.186;17.130;2022-12-29T01:01:03;8.58;64.63
70534;SHT31;58088;51.186;17.130;2022-12-29T01:03:33;8.61;64.55
70534;SHT31;58088;51.186;17.130;2022-12-29T01:06:01;8.62;64.48
70534;SHT31;58088;51.186;17.130;2022-12-29T01:08:30;8.64;64.44
70534;SHT31;58088;51.186;17.130;2022-12-29T01:13:35;8.69;64.45
70534;SHT31;58088;51.186;17.130;2022-12-29T01:16:04;8.70;64.43
70534;SHT31;58088;51.186;17.130;2022-12-29T01:18:32;8.72;64.40
70534;SHT31;58088;51.186;17.130;2022-12-29T01:21:00;8.74;64.42
70534;SHT31;58088;51.186;17.130;2022-12-29T01:23:29;8.76;64.45
70534;SHT31;58088;51.186;17.130;2022-12-29T01:25:56;8.76;64.41
70534;SHT31;58088;51.186;17.130;2022-12-29T01:28:23;8.78;64.40
70534;SHT31;58088;51.186;17.130;2022-12-29T01:30:49;8.80;64.39
70534;SHT31;58088;51.186;17.130;2022-12-29T01:33:16;8.79;64.38
70534;SHT31;58088;51.186;17.130;2022-12-29T01:35:42;8.79;64.36
70534;SHT31;58088;51.186;17.130;2022-12-29T01:38:08;8.79;64.40
70534;SHT31;58088;51.186;17.130;2022-12-29T01:40:42;8.81;64.37
70534;SHT31;58088;51.186;17.130;2022-12-29T01:43:11;8.80;64.40
70534;SHT31;58088;51.186;17.130;2022-12-29T01:45:58;8.79;64.44
70534;SHT31;58088;51.186;17.130;2022-12-29T01:48:24;8.77;64.50
70534;SHT31;58088;51.186;17.130;2022-12-29T01:50:50;8.76;64.53
70534;SHT31;58088;51.186;17.130;2022-12-29T01:53:25;8.74;64.61
70534;SHT31;58088;51.186;17.130;2022-12-29T01:55:58;8.73;64.72
70534;SHT31;58088;51.186;17.130;2022-12-29T01:58:32;8.71;64.76
70534;SHT31;58088;51.186;17.130;2022-12-29T02:01:05;8.69;64.78
70534;SHT31;58088;51.186;17.130;2022-12-29T02:03:34;8.68;64.81
70534;SHT31;58088;51.186;17.130;2022-12-29T02:08:38;8.61;64.93
70534;SHT31;58088;51.186;17.130;2022-12-29T02:11:06;8.60;64.95
70534;SHT31;58088;51.186;17.130;2022-12-29T02:13:33;8.60;65.00
70534;SHT31;58088;51.186;17.130;2022-12-29T02:16:22;8.60;64.97
70534;SHT31;58088;51.186;17.130;2022-12-29T02:31:51;8.57;65.09
70534;SHT31;58088;51.186;17.130;2022-12-29T02:40:26;8.49;65.27
70534;SHT31;58088;51.186;17.130;2022-12-29T02:43:08;8.52;65.23
70534;SHT31;58088;51.186;17.130;2022-12-29T02:45:57;8.53;65.22
70534;SHT31;58088;51.186;17.130;2022-12-29T02:48:29;8.53;65.20
70534;SHT31;58088;51.186;17.130;2022-12-29T02:51:07;8.52;65.12
70534;SHT31;58088;51.186;17.130;2022-12-29T02:53:46;8.49;65.11
70534;SHT31;58088;51.186;17.130;2022-12-29T02:56:32;8.43;65.18
70534;SHT31;58088;51.186;17.130;2022-12-29T02:58:58;8.42;65.23
70534;SHT31;58088;51.186;17.130;2022-12-29T03:04:59;8.30;65.40
70534;SHT31;58088;51.186;17.130;2022-12-29T03:11:14;8.25;65.40
70534;SHT31;58088;51.186;17.130;2022-12-29T03:14:02;8.26;65.34
70534;SHT31;58088;51.186;17.130;2022-12-29T03:17:03;8.26;65.34
70534;SHT31;58088;51.186;17.130;2022-12-29T03:19:40;8.27;65.30
70534;SHT31;58088;51.186;17.130;2022-12-29T03:22:19;8.26;65.29
70534;SHT31;58088;51.186;17.130;2022-12-29T03:25:05;8.26;65.24
70534;SHT31;58088;51.186;17.130;2022-12-29T03:27:42;8.27;65.23
70534;SHT31;58088;51.186;17.130;2022-12-29T03:30:17;8.27;65.16
70534;SHT31;58088;51.186;17.130;2022-12-29T03:32:52;8.29;65.17
70534;SHT31;58088;51.186;17.130;2022-12-29T03:35:25;8.31;65.15
70534;SHT31;58088;51.186;17.130;2022-12-29T03:38:33;8.32;65.34
70534;SHT31;58088;51.186;17.130;2022-12-29T03:41:04;8.35;65.56
70534;SHT31;58088;51.186;17.130;2022-12-29T03:43:37;8.36;65.78
70534;SHT31;58088;51.186;17.130;2022-12-29T03:46:03;8.37;65.99
70534;SHT31;58088;51.186;17.130;2022-12-29T03:48:29;8.34;66.12
70534;SHT31;58088;51.186;17.130;2022-12-29T03:50:56;8.37;66.31
70534;SHT31;58088;51.186;17.130;2022-12-29T03:53:22;8.35;66.59
70534;SHT31;58088;51.186;17.130;2022-12-29T03:55:49;8.37;66.76
70534;SHT31;58088;51.186;17.130;2022-12-29T03:58:15;8.38;66.99
70534;SHT31;58088;51.186;17.130;2022-12-29T04:01:05;8.41;66.99
70534;SHT31;58088;51.186;17.130;2022-12-29T04:03:31;8.43;67.08
70534;SHT31;58088;51.186;17.130;2022-12-29T04:05:57;8.44;67.06
70534;SHT31;58088;51.186;17.130;2022-12-29T04:08:24;8.42;67.14
70534;SHT31;58088;51.186;17.130;2022-12-29T04:10:51;8.39;67.24
70534;SHT31;58088;51.186;17.130;2022-12-29T04:13:18;8.37;67.42
70534;SHT31;58088;51.186;17.130;2022-12-29T04:15:45;8.35;67.50
70534;SHT31;58088;51.186;17.130;2022-12-29T04:18:11;8.32;67.49
70534;SHT31;58088;51.186;17.130;2022-12-29T04:20:38;8.31;67.38
70534;SHT31;58088;51.186;17.130;2022-12-29T04:23:23;8.28;67.30
70534;SHT31;58088;51.186;17.130;2022-12-29T04:25:50;8.26;67.21
70534;SHT31;58088;51.186;17.130;2022-12-29T04:28:16;8.25;67.08
70534;SHT31;58088;51.186;17.130;2022-12-29T04:30:52;8.25;67.03
70534;SHT31;58088;51.186;17.130;2022-12-29T04:33:24;8.26;66.82
70534;SHT31;58088;51.186;17.130;2022-12-29T04:35:52;8.27;66.60
70534;SHT31;58088;51.186;17.130;2022-12-29T04:38:20;8.29;66.57
70534;SHT31;58088;51.186;17.130;2022-12-29T04:40:48;8.30;66.42
70534;SHT31;58088;51.186;17.130;2022-12-29T04:43:17;8.32;66.39
70534;SHT31;58088;51.186;17.130;2022-12-29T04:46:12;8.34;66.31
70534;SHT31;58088;51.186;17.130;2022-12-29T04:48:47;8.37;66.13
70534;SHT31;58088;51.186;17.130;2022-12-29T04:51:32;8.37;65.93
70534;SHT31;58088;51.186;17.130;2022-12-29T04:53:59;8.40;65.87
70534;SHT31;58088;51.186;17.130;2022-12-29T04:56:29;8.40;65.70
70534;SHT31;58088;51.186;17.130;2022-12-29T04:58:56;8.42;65.68
70534;SHT31;58088;51.186;17.130;2022-12-29T05:01:23;8.44;65.57
70534;SHT31;58088;51.186;17.130;2022-12-29T05:03:50;8.46;65.50
70534;SHT31;58088;51.186;17.130;2022-12-29T05:06:17;8.47;65.38
70534;SHT31;58088;51.186;17.130;2022-12-29T05:08:43;8.49;65.33
70534;SHT31;58088;51.186;17.130;2022-12-29T05:11:10;8.52;65.16
70534;SHT31;58088;51.186;17.130;2022-12-29T05:13:36;8.53;65.14
70534;SHT31;58088;51.186;17.130;2022-12-29T05:16:03;8.54;65.02
70534;SHT31;58088;51.186;17.130;2022-12-29T05:18:29;8.54;65.02
70534;SHT31;58088;51.186;17.130;2022-12-29T05:20:57;8.55;64.92
70534;SHT31;58088;51.186;17.130;2022-12-29T05:23:23;8.56;64.89
70534;SHT31;58088;51.186;17.130;2022-12-29T05:25:57;8.57;64.82
70534;SHT31;58088;51.186;17.130;2022-12-29T05:28:46;8.58;64.78
70534;SHT31;58088;51.186;17.130;2022-12-29T05:31:17;8.60;64.81
70534;SHT31;58088;51.186;17.130;2022-12-29T05:33:43;8.61;64.61
70534;SHT31;58088;51.186;17.130;2022-12-29T05:36:10;8.64;64.60
70534;SHT31;58088;51.186;17.130;2022-12-29T05:38:42;8.66;64.51
70534;SHT31;58088;51.186;17.130;2022-12-29T05:41:08;8.68;64.51
70534;SHT31;58088;51.186;17.130;2022-12-29T05:43:55;8.70;64.42
70534;SHT31;58088;51.186;17.130;2022-12-29T05:46:47;8.71;64.32
70534;SHT31;58088;51.186;17.130;2022-12-29T05:49:30;8.71;64.18
70534;SHT31;58088;51.186;17.130;2022-12-29T05:52:08;8.74;63.99
70534;SHT31;58088;51.186;17.130;2022-12-29T05:54:34;8.76;63.77
70534;SHT31;58088;51.186;17.130;2022-12-29T05:57:02;8.80;63.52
70534;SHT31;58088;51.186;17.130;2022-12-29T05:59:29;8.83;63.41
70534;SHT31;58088;51.186;17.130;2022-12-29T06:01:56;8.87;63.30
70534;SHT31;58088;51.186;17.130;2022-12-29T06:04:22;8.91;63.23
70534;SHT31;58088;51.186;17.130;2022-12-29T06:06:48;8.94;63.12
70534;SHT31;58088;51.186;17.130;2022-12-29T06:09:27;8.94;62.92
70534;SHT31;58088;51.186;17.130;2022-12-29T06:11:54;8.92;62.81
70534;SHT31;58088;51.186;17.130;2022-12-29T06:14:20;8.95;62.91
70534;SHT31;58088;51.186;17.130;2022-12-29T06:16:46;8.95;62.79
70534;SHT31;58088;51.186;17.130;2022-12-29T06:19:13;8.95;62.79
70534;SHT31;58088;51.186;17.130;2022-12-29T06:21:39;8.98;62.72
70534;SHT31;58088;51.186;17.130;2022-12-29T06:24:06;9.06;62.54
70534;SHT31;58088;51.186;17.130;2022-12-29T06:26:35;9.08;62.44
70534;SHT31;58088;51.186;17.130;2022-12-29T06:29:02;9.10;62.32
70534;SHT31;58088;51.186;17.130;2022-12-29T06:31:28;9.12;62.28
70534;SHT31;58088;51.186;17.130;2022-12-29T06:33:55;9.16;62.19
70534;SHT31;58088;51.186;17.130;2022-12-29T06:36:21;9.15;62.11
70534;SHT31;58088;51.186;17.130;2022-12-29T06:38:48;9.16;62.04
70534;SHT31;58088;51.186;17.130;2022-12-29T06:41:14;9.16;61.97
70534;SHT31;58088;51.186;17.130;2022-12-29T06:44:00;9.16;61.86
70534;SHT31;58088;51.186;17.130;2022-12-29T06:46:47;9.18;61.82
70534;SHT31;58088;51.186;17.130;2022-12-29T06:49:13;9.18;61.86
70534;SHT31;58088;51.186;17.130;2022-12-29T06:51:40;9.18;61.72
70534;SHT31;58088;51.186;17.130;2022-12-29T06:54:06;9.19;61.78
70534;SHT31;58088;51.186;17.130;2022-12-29T06:56:33;9.19;61.71
70534;SHT31;58088;51.186;17.130;2022-12-29T06:58:59;9.20;61.70
70534;SHT31;58088;51.186;17.130;2022-12-29T07:01:26;9.19;61.60
70534;SHT31;58088;51.186;17.130;2022-12-29T07:03:53;9.19;61.71
70534;SHT31;58088;51.186;17.130;2022-12-29T07:06:19;9.21;61.72
70534;SHT31;58088;51.186;17.130;2022-12-29T07:08:46;9.21;61.65
70534;SHT31;58088;51.186;17.130;2022-12-29T07:11:12;9.24;61.61
70534;SHT31;58088;51.186;17.130;2022-12-29T07:13:38;9.28;61.69
70534;SHT31;58088;51.186;17.130;2022-12-29T07:16:08;9.30;61.67
70534;SHT31;58088;51.186;17.130;2022-12-29T07:18:35;9.31;61.65
70534;SHT31;58088;51.186;17.130;2022-12-29T07:21:02;9.32;61.65
70534;SHT31;58088;51.186;17.130;2022-12-29T07:23:28;9.31;61.66
70534;SHT31;58088;51.186;17.130;2022-12-29T07:25:58;9.30;61.67
70534;SHT31;58088;51.186;17.130;2022-12-29T07:28:30;9.30;61.60
70534;SHT31;58088;51.186;17.130;2022-12-29T07:30:58;9.30;61.55
70534;SHT31;58088;51.186;17.130;2022-12-29T07:33:25;9.30;61.56
70534;SHT31;58088;51.186;17.130;2022-12-29T07:35:54;9.33;61.59
70534;SHT31;58088;51.186;17.130;2022-12-29T07:38:20;9.36;61.55
70534;SHT31;58088;51.186;17.130;2022-12-29T07:40:47;9.37;61.52
70534;SHT31;58088;51.186;17.130;2022-12-29T07:43:13;9.39;61.59
70534;SHT31;58088;51.186;17.130;2022-12-29T07:45:46;9.41;61.56
70534;SHT31;58088;51.186;17.130;2022-12-29T07:48:16;9.43;61.57
70534;SHT31;58088;51.186;17.130;2022-12-29T07:50:42;9.45;61.66
70534;SHT31;58088;51.186;17.130;2022-12-29T07:53:08;9.45;61.58
70534;SHT31;58088;51.186;17.130;2022-12-29T07:55:34;9.45;61.54
70534;SHT31;58088;51.186;17.130;2022-12-29T07:58:00;9.46;61.55
70534;SHT31;58088;51.186;17.130;2022-12-29T08:00:27;9.46;61.50
70534;SHT31;58088;51.186;17.130;2022-12-29T08:02:53;9.50;61.63
70534;SHT31;58088;51.186;17.130;2022-12-29T08:05:19;9.51;61.63
70534;SHT31;58088;51.186;17.130;2022-12-29T08:07:46;9.54;61.60
70534;SHT31;58088;51.186;17.130;2022-12-29T08:10:13;9.57;61.68
70534;SHT31;58088;51.186;17.130;2022-12-29T08:12:41;9.62;61.67
70534;SHT31;58088;51.186;17.130;2022-12-29T08:15:09;9.67;61.60
70534;SHT31;58088;51.186;17.130;2022-12-29T08:17:37;9.72;61.73
70534;SHT31;58088;51.186;17.130;2022-12-29T08:20:03;9.75;61.67
70534;SHT31;58088;51.186;17.130;2022-12-29T08:22:31;9.77;61.59
70534;SHT31;58088;51.186;17.130;2022-12-29T08:24:57;9.80;61.48
70534;SHT31;58088;51.186;17.130;2022-12-29T08:27:23;9.87;61.60
70534;SHT31;58088;51.186;17.130;2022-12-29T08:29:50;9.89;61.56
70534;SHT31;58088;51.186;17.130;2022-12-29T08:32:16;9.90;61.29
70534;SHT31;58088;51.186;17.130;2022-12-29T08:34:43;9.90;61.20
70534;SHT31;58088;51.186;17.130;2022-12-29T08:37:11;9.88;60.97
70534;SHT31;58088;51.186;17.130;2022-12-29T08:39:37;9.88;61.01
70534;SHT31;58088;51.186;17.130;2022-12-29T08:42:04;9.90;60.96
70534;SHT31;58088;51.186;17.130;2022-12-29T08:44:32;9.95;60.95
70534;SHT31;58088;51.186;17.130;2022-12-29T08:46:58;10.01;60.92
70534;SHT31;58088;51.186;17.130;2022-12-29T08:49:24;10.05;60.81
70534;SHT31;58088;51.186;17.130;2022-12-29T08:51:50;10.12;60.77
70534;SHT31;58088;51.186;17.130;2022-12-29T08:54:17;10.17;60.85
70534;SHT31;58088;51.186;17.130;2022-12-29T08:56:43;10.22;60.79
70534;SHT31;58088;51.186;17.130;2022-12-29T08:59:12;10.29;60.66
70534;SHT31;58088;51.186;17.130;2022-12-29T09:01:39;10.31;60.47
70534;SHT31;58088;51.186;17.130;2022-12-29T09:04:06;10.35;60.58
70534;SHT31;58088;51.186;17.130;2022-12-29T09:06:33;10.38;60.49
70534;SHT31;58088;51.186;17.130;2022-12-29T09:08:59;10.41;60.36
70534;SHT31;58088;51.186;17.130;2022-12-29T09:11:26;10.44;60.31
70534;SHT31;58088;51.186;17.130;2022-12-29T09:13:52;10.46;60.23
70534;SHT31;58088;51.186;17.130;2022-12-29T09:16:20;10.48;60.15
70534;SHT31;58088;51.186;17.130;2022-12-29T09:18:49;10.51;60.10
70534;SHT31;58088;51.186;17.130;2022-12-29T09:21:16;10.58;60.13
70534;SHT31;58088;51.186;17.130;2022-12-29T09:23:42;10.61;59.97
70534;SHT31;58088;51.186;17.130;2022-12-29T09:26:08;10.66;60.00
70534;SHT31;58088;51.186;17.130;2022-12-29T09:28:35;10.68;59.95
70534;SHT31;58088;51.186;17.130;2022-12-29T09:31:02;10.73;59.93
70534;SHT31;58088;51.186;17.130;2022-12-29T09:33:29;10.76;59.92
70534;SHT31;58088;51.186;17.130;2022-12-29T09:35:58;10.79;59.76
70534;SHT31;58088;51.186;17.130;2022-12-29T09:38:24;10.84;59.87
70534;SHT31;58088;51.186;17.130;2022-12-29T09:40:53;10.91;59.94
70534;SHT31;58088;51.186;17.130;2022-12-29T09:46:43;11.04;59.74
70534;SHT31;58088;51.186;17.130;2022-12-29T09:51:51;11.10;59.61
70534;SHT31;58088;51.186;17.130;2022-12-29T09:54:28;11.13;59.62
70534;SHT31;58088;51.186;17.130;2022-12-29T09:57:20;11.17;59.50
70534;SHT31;58088;51.186;17.130;2022-12-29T09:59:50;11.20;59.47
70534;SHT31;58088;51.186;17.130;2022-12-29T10:05:25;11.24;59.04
70534;SHT31;58088;51.186;17.130;2022-12-29T10:11:04;11.33;58.64
70534;SHT31;58088;51.186;17.130;2022-12-29T10:13:52;11.34;58.56
70534;SHT31;58088;51.186;17.130;2022-12-29T10:19:43;11.41;58.62
70534;SHT31;58088;51.186;17.130;2022-12-29T10:25:58;11.55;58.73
70534;SHT31;58088;51.186;17.130;2022-12-29T10:28:43;11.60;58.60
70534;SHT31;58088;51.186;17.130;2022-12-29T10:31:33;11.65;58.20
70534;SHT31;58088;51.186;17.130;2022-12-29T10:34:15;11.70;58.11
70534;SHT31;58088;51.186;17.130;2022-12-29T10:39:45;11.82;57.70
70534;SHT31;58088;51.186;17.130;2022-12-29T10:45:13;11.86;57.70
70534;SHT31;58088;51.186;17.130;2022-12-29T10:48:18;11.83;57.81
70534;SHT31;58088;51.186;17.130;2022-12-29T10:50:42;11.80;58.01
70534;SHT31;58088;51.186;17.130;2022-12-29T10:53:11;11.82;58.22
70534;SHT31;58088;51.186;17.130;2022-12-29T10:55:46;11.87;58.51
70534;SHT31;58088;51.186;17.130;2022-12-29T10:58:15;11.88;58.31
70534;SHT31;58088;51.186;17.130;2022-12-29T11:00:41;11.90;58.34
70534;SHT31;58088;51.186;17.130;2022-12-29T11:06:24;12.03;57.74
70534;SHT31;58088;51.186;17.130;2022-12-29T11:08:55;12.11;57.55
70534;SHT31;58088;51.186;17.130;2022-12-29T11:11:35;12.16;57.26
70534;SHT31;58088;51.186;17.130;2022-12-29T11:16:58;12.29;56.72
70534;SHT31;58088;51.186;17.130;2022-12-29T11:19:31;12.36;56.72
70534;SHT31;58088;51.186;17.130;2022-12-29T11:22:32;12.43;56.33
70534;SHT31;58088;51.186;17.130;2022-12-29T11:24:54;12.50;56.17
70534;SHT31;58088;51.186;17.130;2022-12-29T11:27:37;12.56;56.06
70534;SHT31;58088;51.186;17.130;2022-12-29T11:30:11;12.61;56.05
70534;SHT31;58088;51.186;17.130;2022-12-29T11:32:51;12.69;55.94
70534;SHT31;58088;51.186;17.130;2022-12-29T11:35:30;12.74;55.80
70534;SHT31;58088;51.186;17.130;2022-12-29T11:38:32;12.79;55.79
70534;SHT31;58088;51.186;17.130;2022-12-29T11:41:02;12.80;55.66
70534;SHT31;58088;51.186;17.130;2022-12-29T11:43:36;12.82;55.41
70534;SHT31;58088;51.186;17.130;2022-12-29T11:46:06;12.86;55.49
70534;SHT31;58088;51.186;17.130;2022-12-29T11:48:39;12.86;55.25
70534;SHT31;58088;51.186;17.130;2022-12-29T11:51:08;12.88;55.40
70534;SHT31;58088;51.186;17.130;2022-12-29T11:53:47;12.85;55.18
70534;SHT31;58088;51.186;17.130;2022-12-29T11:56:40;12.88;55.17
70534;SHT31;58088;51.186;17.130;2022-12-29T12:01:53;12.94;54.99
70534;SHT31;58088;51.186;17.130;2022-12-29T12:04:30;12.97;54.98
70534;SHT31;58088;51.186;17.130;2022-12-29T12:07:17;13.01;55.04
70534;SHT31;58088;51.186;17.130;2022-12-29T12:09:51;13.01;55.13
70534;SHT31;58088;51.186;17.130;2022-12-29T12:14:55;12.98;54.73
70534;SHT31;58088;51.186;17.130;2022-12-29T12:20:36;12.98;55.01
70534;SHT31;58088;51.186;17.130;2022-12-29T12:32:10;12.93;55.36
70534;SHT31;58088;51.186;17.130;2022-12-29T12:34:46;12.94;55.44
70534;SHT31;58088;51.186;17.130;2022-12-29T12:37:22;12.94;55.43
70534;SHT31;58088;51.186;17.130;2022-12-29T12:40:46;12.92;55.54
70534;SHT31;58088;51.186;17.130;2022-12-29T12:43:36;12.88;55.50
70534;SHT31;58088;51.186;17.130;2022-12-29T13:04:50;12.64;56.04
70534;SHT31;58088;51.186;17.130;2022-12-29T13:08:21;12.63;56.25
70534;SHT31;58088;51.186;17.130;2022-12-29T13:10:49;12.64;56.43
70534;SHT31;58088;51.186;17.130;2022-12-29T13:19:25;12.57;56.59
70534;SHT31;58088;51.186;17.130;2022-12-29T13:25:44;12.53;56.52
70534;SHT31;58088;51.186;17.130;2022-12-29T13:28:23;12.50;56.51
70534;SHT31;58088;51.186;17.130;2022-12-29T13:35:23;12.48;56.28
70534;SHT31;58088;51.186;17.130;2022-12-29T13:37:31;12.50;56.20
70534;SHT31;58088;51.186;17.130;2022-12-29T13:40:11;12.52;56.13
70534;SHT31;58088;51.186;17.130;2022-12-29T13:42:43;12.56;56.24
70534;SHT31;58088;51.186;17.130;2022-12-29T13:45:21;12.56;56.35
70534;SHT31;58088;51.186;17.130;2022-12-29T13:51:02;12.56;56.17
70534;SHT31;58088;51.186;17.130;2022-12-29T14:05:01;12.67;55.58
70534;SHT31;58088;51.186;17.130;2022-12-29T14:07:59;12.65;55.72
70534;SHT31;58088;51.186;17.130;2022-12-29T14:10:35;12.61;55.61
70534;SHT31;58088;51.186;17.130;2022-12-29T14:13:12;12.59;55.69
70534;SHT31;58088;51.186;17.130;2022-12-29T14:15:51;12.58;55.85
70534;SHT31;58088;51.186;17.130;2022-12-29T14:18:25;12.57;55.85
70534;SHT31;58088;51.186;17.130;2022-12-29T14:28:32;12.55;56.57
70534;SHT31;58088;51.186;17.130;2022-12-29T14:31:07;12.49;56.91
70534;SHT31;58088;51.186;17.130;2022-12-29T14:36:39;12.31;57.26
70534;SHT31;58088;51.186;17.130;2022-12-29T14:39:30;12.22;57.36
70534;SHT31;58088;51.186;17.130;2022-12-29T14:42:06;12.14;57.49
70534;SHT31;58088;51.186;17.130;2022-12-29T14:47:52;12.00;57.71
70534;SHT31;58088;51.186;17.130;2022-12-29T14:50:22;11.94;57.75
70534;SHT31;58088;51.186;17.130;2022-12-29T14:53:00;11.92;57.84
70534;SHT31;58088;51.186;17.130;2022-12-29T14:58:17;11.81;57.79
70534;SHT31;58088;51.186;17.130;2022-12-29T15:01:17;11.73;57.86
70534;SHT31;58088;51.186;17.130;2022-12-29T15:04:05;11.65;57.93
70534;SHT31;58088;51.186;17.130;2022-12-29T15:06:43;11.61;57.98
70534;SHT31;58088;51.186;17.130;2022-12-29T15:12:11;11.52;57.96
70534;SHT31;58088;51.186;17.130;2022-12-29T15:14:49;11.48;58.02
70534;SHT31;58088;51.186;17.130;2022-12-29T15:17:29;11.43;58.02
70534;SHT31;58088;51.186;17.130;2022-12-29T15:20:00;11.37;58.13
70534;SHT31;58088;51.186;17.130;2022-12-29T15:22:55;11.31;58.22
70534;SHT31;58088;51.186;17.130;2022-12-29T15:25:36;11.25;58.25
70534;SHT31;58088;51.186;17.130;2022-12-29T15:28:24;11.20;58.30
70534;SHT31;58088;51.186;17.130;2022-12-29T15:33:28;11.11;58.45
70534;SHT31;58088;51.186;17.130;2022-12-29T15:35:55;11.08;58.51
70534;SHT31;58088;51.186;17.130;2022-12-29T15:38:29;11.00;58.62
70534;SHT31;58088;51.186;17.130;2022-12-29T15:40:58;10.93;58.72
70534;SHT31;58088;51.186;17.130;2022-12-29T15:46:45;10.74;58.92
70534;SHT31;58088;51.186;17.130;2022-12-29T15:49:13;10.64;59.09
70534;SHT31;58088;51.186;17.130;2022-12-29T15:51:40;10.58;59.22
70534;SHT31;58088;51.186;17.130;2022-12-29T15:54:19;10.54;59.33
70534;SHT31;58088;51.186;17.130;2022-12-29T15:56:48;10.49;59.40
70534;SHT31;58088;51.186;17.130;2022-12-29T16:01:54;10.37;59.47
70534;SHT31;58088;51.186;17.130;2022-12-29T16:04:23;10.34;59.49
70534;SHT31;58088;51.186;17.130;2022-12-29T16:06:58;10.32;59.42
70534;SHT31;58088;51.186;17.130;2022-12-29T16:09:34;10.30;59.47
70534;SHT31;58088;51.186;17.130;2022-12-29T16:12:16;10.26;59.49
70534;SHT31;58088;51.186;17.130;2022-12-29T16:17:46;10.16;59.53
70534;SHT31;58088;51.186;17.130;2022-12-29T16:20:22;10.10;59.54
70534;SHT31;58088;51.186;17.130;2022-12-29T16:22:57;10.07;59.70
70534;SHT31;58088;51.186;17.130;2022-12-29T16:25:29;10.04;59.71
70534;SHT31;58088;51.186;17.130;2022-12-29T16:28:00;10.01;59.82
70534;SHT31;58088;51.186;17.130;2022-12-29T16:30:39;9.99;59.89
70534;SHT31;58088;51.186;17.130;2022-12-29T16:33:05;9.97;59.93
70534;SHT31;58088;51.186;17.130;2022-12-29T16:35:39;9.89;59.94
70534;SHT31;58088;51.186;17.130;2022-12-29T16:38:19;9.93;60.07
70534;SHT31;58088;51.186;17.130;2022-12-29T16:40:54;9.93;60.08
70534;SHT31;58088;51.186;17.130;2022-12-29T16:43:33;9.92;60.09
70534;SHT31;58088;51.186;17.130;2022-12-29T16:46:15;9.89;60.11
70534;SHT31;58088;51.186;17.130;2022-12-29T16:48:53;9.88;60.20
70534;SHT31;58088;51.186;17.130;2022-12-29T16:51:31;9.86;60.20
70534;SHT31;58088;51.186;17.130;2022-12-29T16:54:01;9.86;60.31
70534;SHT31;58088;51.186;17.130;2022-12-29T16:56:30;9.85;60.33
70534;SHT31;58088;51.186;17.130;2022-12-29T17:01:55;9.80;60.40
70534;SHT31;58088;51.186;17.130;2022-12-29T17:04:23;9.77;60.42
70534;SHT31;58088;51.186;17.130;2022-12-29T17:06:50;9.76;60.50
70534;SHT31;58088;51.186;17.130;2022-12-29T17:09:17;9.75;60.54
70534;SHT31;58088;51.186;17.130;2022-12-29T17:11:50;9.74;60.64
70534;SHT31;58088;51.186;17.130;2022-12-29T17:17:18;9.84;60.80
70534;SHT31;58088;51.186;17.130;2022-12-29T17:22:51;9.85;60.65
70534;SHT31;58088;51.186;17.130;2022-12-29T17:25:20;9.85;60.70
70534;SHT31;58088;51.186;17.130;2022-12-29T17:28:00;9.82;60.71
70534;SHT31;58088;51.186;17.130;2022-12-29T17:30:57;9.77;60.79
70534;SHT31;58088;51.186;17.130;2022-12-29T17:33:29;9.76;60.90
70534;SHT31;58088;51.186;17.130;2022-12-29T17:36:02;9.76;60.83
70534;SHT31;58088;51.186;17.130;2022-12-29T17:38:29;9.77;60.80
70534;SHT31;58088;51.186;17.130;2022-12-29T17:40:59;9.79;60.83
70534;SHT31;58088;51.186;17.130;2022-12-29T17:43:26;9.79;60.84
70534;SHT31;58088;51.186;17.130;2022-12-29T17:45:53;9.83;60.82
70534;SHT31;58088;51.186;17.130;2022-12-29T17:48:22;9.85;60.76
70534;SHT31;58088;51.186;17.130;2022-12-29T17:50:51;9.84;60.81
70534;SHT31;58088;51.186;17.130;2022-12-29T17:53:20;9.84;60.77
70534;SHT31;58088;51.186;17.130;2022-12-29T17:55:51;9.82;60.80
70534;SHT31;58088;51.186;17.130;2022-12-29T17:58:21;9.82;60.80
70534;SHT31;58088;51.186;17.130;2022-12-29T18:00:55;9.82;60.82
70534;SHT31;58088;51.186;17.130;2022-12-29T18:06:04;9.80;60.85
70534;SHT31;58088;51.186;17.130;2022-12-29T18:08:37;9.78;60.88
70534;SHT31;58088;51.186;17.130;2022-12-29T18:11:11;9.78;60.97
70534;SHT31;58088;51.186;17.130;2022-12-29T18:13:47;9.80;61.05
70534;SHT31;58088;51.186;17.130;2022-12-29T18:16:13;9.81;61.11
70534;SHT31;58088;51.186;17.130;2022-12-29T18:18:40;9.81;61.20
70534;SHT31;58088;51.186;17.130;2022-12-29T18:21:08;9.81;61.21
70534;SHT31;58088;51.186;17.130;2022-12-29T18:23:42;9.83;61.30
70534;SHT31;58088;51.186;17.130;2022-12-29T18:26:16;9.84;61.30
70534;SHT31;58088;51.186;17.130;2022-12-29T18:28:48;9.84;61.28
70534;SHT31;58088;51.186;17.130;2022-12-29T18:31:23;9.84;61.35
70534;SHT31;58088;51.186;17.130;2022-12-29T18:33:54;9.85;61.36
70534;SHT31;58088;51.186;17.130;2022-12-29T18:36:23;9.84;61.38
70534;SHT31;58088;51.186;17.130;2022-12-29T18:38:49;9.84;61.39
70534;SHT31;58088;51.186;17.130;2022-12-29T18:41:19;9.83;61.43
70534;SHT31;58088;51.186;17.130;2022-12-29T18:43:48;9.81;61.50
70534;SHT31;58088;51.186;17.130;2022-12-29T18:46:15;9.78;61.58
70534;SHT31;58088;51.186;17.130;2022-12-29T18:48:41;9.75;61.60